ADDS TAF Data INFO
IDs: Format: Raw Decoded Include METARs

Data at: 0214 UTC 17 Aug 2018

KDVN 170209Z AUTO 13003KT 10SM FEW004 21/19 A2994 RMK AO2 LTG DSNT E T02060194

No TAF found for KDVN

KMLI 170152Z 19003KT 10SM CLR 21/20 A2991 RMK AO2 LTG DSNT NE AND E RAE16 TSE01B04E19 SLP124 P0029 T02110200

KMLI 170205Z 1702/1724 VRB03KT P6SM SCT050
  FM170600 VRB02KT 5SM BR SCT025 BKN100
  FM171000 VRB03KT 1SM BR SCT003 BKN020
  FM171300 36005KT 4SM BR SCT008 BKN035